Time;durP1;ratioP1;P1;durP2;ratioP2;P2;SDS_P1;SDS_P2;PMS_P1;PMS_P2;Temp;Humidity;BMP_temperature;BMP_pressure;BME280_temperature;BME280_humidity;BME280_pressure;Samples;Min_cycle;Max_cycle;Signal;HPM_P1;HPM_P2
2023/03/29 00:00:15;;;;;;;0.10;0.10;;;8.10;99.90;;;;;;5029290;28;20257;-80
2023/03/29 00:02:42;;;;;;;0.10;0.10;;;8.10;99.90;;;;;;5035015;28;20192;-81
2023/03/29 00:05:09;;;;;;;0.10;0.10;;;8.10;99.90;;;;;;5029715;28;20216;-82
2023/03/29 00:07:35;;;;;;;0.10;0.10;;;8.10;99.90;;;;;;5031717;28;20191;-81
2023/03/29 00:10:03;;;;;;;0.10;0.10;;;8.00;99.90;;;;;;5030306;28;21010;-81
2023/03/29 00:12:29;;;;;;;0.10;0.10;;;8.10;99.90;;;;;;5034445;28;20191;-81
2023/03/29 00:14:55;;;;;;;0.10;0.10;;;8.00;99.90;;;;;;5051516;28;20216;-81
2023/03/29 00:17:21;;;;;;;0.10;0.10;;;8.00;99.90;;;;;;5033180;28;20809;-81
2023/03/29 00:19:47;;;;;;;0.10;0.10;;;8.00;99.90;;;;;;5033198;28;20208;-81
2023/03/29 00:22:13;;;;;;;0.10;0.10;;;8.10;99.90;;;;;;5035629;28;20278;-81
2023/03/29 00:24:38;;;;;;;0.10;0.10;;;8.10;99.90;;;;;;5035335;28;20200;-80
2023/03/29 00:27:04;;;;;;;0.10;0.10;;;8.10;99.90;;;;;;5054686;28;20186;-79
2023/03/29 00:29:31;;;;;;;0.07;0.07;;;8.10;99.90;;;;;;5036430;28;20649;-79
2023/03/29 00:31:56;;;;;;;0.10;0.10;;;8.10;99.90;;;;;;5038260;28;20180;-80
2023/03/29 00:34:23;;;;;;;0.10;0.10;;;8.10;99.90;;;;;;5039545;28;20192;-80
2023/03/29 00:36:49;;;;;;;0.10;0.10;;;8.10;99.90;;;;;;5036794;28;20646;-80
2023/03/29 00:39:16;;;;;;;0.10;0.10;;;8.10;99.90;;;;;;5039751;28;20185;-80
2023/03/29 00:41:47;;;;;;;0.00;0.00;;;8.10;99.90;;;;;;5036374;28;20196;-80
2023/03/29 00:44:50;;;;;;;0.10;0.10;;;8.10;99.90;;;;;;5039088;28;20210;-80
2023/03/29 00:47:20;;;;;;;0.10;0.10;;;8.10;99.90;;;;;;5047221;28;20212;-80
2023/03/29 00:49:46;;;;;;;0.10;0.10;;;8.10;99.90;;;;;;5036253;28;20205;-80
2023/03/29 00:52:14;;;;;;;0.10;0.10;;;8.10;99.90;;;;;;5054918;28;20279;-80
2023/03/29 00:54:42;;;;;;;0.10;0.10;;;7.90;99.90;;;;;;5038901;28;20686;-80
2023/03/29 00:57:08;;;;;;;0.10;0.10;;;7.70;99.90;;;;;;5038027;28;20185;-80
2023/03/29 00:59:35;;;;;;;0.10;0.10;;;7.40;99.90;;;;;;5030406;28;20269;-80
2023/03/29 01:02:06;;;;;;;0.10;0.10;;;7.30;99.90;;;;;;5036791;28;20189;-80
2023/03/29 01:04:46;;;;;;;0.10;0.10;;;7.30;99.90;;;;;;5035904;28;20301;-80
2023/03/29 01:07:29;;;;;;;0.10;0.10;;;7.50;99.90;;;;;;5056139;28;20192;-80
2023/03/29 01:10:03;;;;;;;0.10;0.10;;;7.50;99.90;;;;;;5037341;28;20743;-80
2023/03/29 01:12:34;;;;;;;0.10;0.10;;;7.40;99.90;;;;;;5037056;28;20248;-80
2023/03/29 01:15:23;;;;;;;0.10;0.10;;;7.30;99.90;;;;;;5038002;28;20227;-80
2023/03/29 01:17:52;;;;;;;0.10;0.10;;;7.20;99.90;;;;;;5054697;28;20185;-80
2023/03/29 01:20:33;;;;;;;0.10;0.10;;;7.10;99.90;;;;;;5038392;28;20328;-80
2023/03/29 01:23:17;;;;;;;0.10;0.10;;;7.00;99.90;;;;;;5035372;28;20535;-79
2023/03/29 01:26:01;;;;;;;0.10;0.10;;;7.00;99.90;;;;;;5046681;28;20196;-80
2023/03/29 01:28:35;;;;;;;0.10;0.10;;;7.30;99.90;;;;;;5036955;28;20267;-79
2023/03/29 01:31:09;;;;;;;0.10;0.10;;;7.40;99.90;;;;;;5039383;28;20217;-80
2023/03/29 01:33:42;;;;;;;0.10;0.10;;;7.40;99.90;;;;;;5037792;28;20176;-79
2023/03/29 01:36:23;;;;;;;0.10;0.10;;;7.10;99.90;;;;;;5035969;28;20184;-79
2023/03/29 01:39:07;;;;;;;0.10;0.10;;;7.20;99.90;;;;;;5030492;28;20658;-79
2023/03/29 01:42:10;;;;;;;0.10;0.10;;;7.10;99.90;;;;;;5037829;28;20184;-79
2023/03/29 01:44:48;;;;;;;0.10;0.10;;;7.30;99.90;;;;;;5045868;28;20277;-80
2023/03/29 01:47:16;;;;;;;0.10;0.10;;;7.40;99.90;;;;;;5035170;28;20180;-80
2023/03/29 01:50:11;;;;;;;0.10;0.10;;;7.50;99.90;;;;;;5037961;28;20201;-80
2023/03/29 01:52:55;;;;;;;0.10;0.10;;;7.30;99.90;;;;;;5029177;28;20183;-80
2023/03/29 01:55:37;;;;;;;0.10;0.10;;;7.40;99.90;;;;;;5056314;28;20188;-80
2023/03/29 01:58:04;;;;;;;0.10;0.10;;;7.50;99.90;;;;;;5035846;28;20232;-80
2023/03/29 02:00:33;;;;;;;0.00;0.00;;;7.40;99.90;;;;;;5037541;28;20201;-81
2023/03/29 02:03:03;;;;;;;0.10;0.10;;;7.20;99.90;;;;;;5036503;28;20187;-80
2023/03/29 02:05:30;;;;;;;0.10;0.10;;;7.10;99.90;;;;;;5038101;28;20207;-80
2023/03/29 02:07:58;;;;;;;0.03;0.03;;;7.00;99.90;;;;;;5055566;28;20184;-80
2023/03/29 02:10:24;;;;;;;0.10;0.10;;;6.90;99.90;;;;;;5039477;28;20586;-79
2023/03/29 02:12:50;;;;;;;0.10;0.10;;;6.90;99.90;;;;;;5037074;28;20191;-81
2023/03/29 02:15:18;;;;;;;0.10;0.10;;;6.90;99.90;;;;;;5038984;28;20190;-80
2023/03/29 02:17:45;;;;;;;0.10;0.10;;;6.90;99.90;;;;;;5038603;28;20558;-80
2023/03/29 02:20:26;;;;;;;0.10;0.10;;;7.10;99.90;;;;;;5038546;28;20290;-81
2023/03/29 02:23:04;;;;;;;0.10;0.10;;;7.10;99.90;;;;;;5036544;28;20247;-80
2023/03/29 02:25:31;;;;;;;0.10;0.10;;;7.00;99.90;;;;;;5036894;28;20287;-81
2023/03/29 02:27:57;;;;;;;0.10;0.10;;;6.80;99.90;;;;;;5035212;28;20222;-81
2023/03/29 02:30:26;;;;;;;0.10;0.10;;;6.80;99.90;;;;;;5054729;28;20208;-80
2023/03/29 02:33:14;;;;;;;0.10;0.10;;;6.70;99.90;;;;;;5037271;28;20220;-80
2023/03/29 02:35:52;;;;;;;0.10;0.10;;;6.90;99.90;;;;;;5035547;28;20279;-81
2023/03/29 02:38:18;;;;;;;0.10;0.10;;;6.90;99.90;;;;;;5037077;28;20265;-81
2023/03/29 02:40:45;;;;;;;0.10;0.10;;;7.00;99.90;;;;;;5036048;28;20581;-79
2023/03/29 02:43:13;;;;;;;0.10;0.10;;;7.00;99.90;;;;;;5053793;28;20197;-80
2023/03/29 02:45:41;;;;;;;0.10;0.10;;;6.80;99.90;;;;;;5036701;28;20526;-79
2023/03/29 02:48:10;;;;;;;0.10;0.10;;;6.80;99.90;;;;;;5036453;28;20180;-80
2023/03/29 02:50:40;;;;;;;0.10;0.10;;;6.60;99.90;;;;;;5037767;28;20208;-80
2023/03/29 02:53:15;;;;;;;0.10;0.10;;;6.70;99.90;;;;;;5036446;28;20190;-80
2023/03/29 02:55:41;;;;;;;0.10;0.10;;;6.70;99.90;;;;;;5035825;28;20179;-79
2023/03/29 02:58:07;;;;;;;0.10;0.10;;;6.70;99.90;;;;;;5034616;28;20180;-80
2023/03/29 03:00:39;;;;;;;0.10;0.10;;;6.60;99.90;;;;;;5053431;28;20197;-80
2023/03/29 03:03:06;;;;;;;0.10;0.10;;;6.60;99.90;;;;;;5050296;28;20185;-80
2023/03/29 03:05:32;;;;;;;0.10;0.10;;;6.70;99.90;;;;;;5050972;28;20214;-80
2023/03/29 03:07:58;;;;;;;0.10;0.10;;;6.70;99.90;;;;;;5035551;28;20726;-80
2023/03/29 03:10:24;;;;;;;0.00;0.00;;;6.60;99.90;;;;;;5036782;28;20231;-80
2023/03/29 03:12:49;;;;;;;0.10;0.10;;;6.60;99.90;;;;;;5033520;28;20181;-80
2023/03/29 03:15:15;;;;;;;0.10;0.10;;;6.60;99.90;;;;;;5027235;28;20276;-81
2023/03/29 03:17:40;;;;;;;0.10;0.10;;;6.60;99.90;;;;;;5036634;28;20545;-81
2023/03/29 03:20:11;;;;;;;0.10;0.10;;;6.60;99.90;;;;;;5035774;28;21041;-81
2023/03/29 03:22:39;;;;;;;0.10;0.10;;;6.50;99.90;;;;;;5035088;28;20186;-81
2023/03/29 03:25:05;;;;;;;0.10;0.10;;;6.50;99.90;;;;;;5052456;28;20298;-80
2023/03/29 03:27:32;;;;;;;0.10;0.10;;;6.50;99.90;;;;;;5052013;28;20269;-80
2023/03/29 03:29:58;;;;;;;0.10;0.10;;;6.60;99.90;;;;;;5054017;28;20218;-80
2023/03/29 03:32:23;;;;;;;0.10;0.10;;;6.80;99.90;;;;;;5036000;28;20196;-80
2023/03/29 03:34:49;;;;;;;0.10;0.10;;;6.90;99.90;;;;;;5052141;28;20185;-79
2023/03/29 03:37:14;;;;;;;0.10;0.10;;;6.80;99.90;;;;;;5034595;28;20565;-80
2023/03/29 03:39:40;;;;;;;0.10;0.10;;;6.70;99.90;;;;;;5034573;28;20223;-80
2023/03/29 03:42:06;;;;;;;0.10;0.10;;;6.70;99.90;;;;;;5033413;28;20299;-79
2023/03/29 03:44:31;;;;;;;0.10;0.10;;;6.70;99.90;;;;;;5034876;28;20201;-80
2023/03/29 03:46:57;;;;;;;0.10;0.10;;;6.60;99.90;;;;;;5035015;28;20562;-80
2023/03/29 03:49:23;;;;;;;0.10;0.10;;;6.60;99.90;;;;;;5035137;28;20662;-79
2023/03/29 03:51:48;;;;;;;0.10;0.10;;;6.60;99.90;;;;;;5052471;28;20299;-79
2023/03/29 03:54:14;;;;;;;0.10;0.10;;;6.60;99.90;;;;;;5035641;28;20188;-79
2023/03/29 03:56:39;;;;;;;0.10;0.10;;;6.60;99.90;;;;;;5052860;28;20192;-80
2023/03/29 03:59:06;;;;;;;0.10;0.10;;;6.60;99.90;;;;;;5035275;28;20200;-80
2023/03/29 04:01:32;;;;;;;0.10;0.10;;;6.70;99.90;;;;;;5035632;28;20694;-80
2023/03/29 04:03:58;;;;;;;0.10;0.10;;;6.80;99.90;;;;;;5034620;28;20211;-79
2023/03/29 04:06:24;;;;;;;0.10;0.10;;;6.80;99.90;;;;;;5027446;28;20184;-80
2023/03/29 04:08:50;;;;;;;0.10;0.10;;;6.90;99.90;;;;;;5035229;28;20199;-80
2023/03/29 04:11:15;;;;;;;0.10;0.10;;;6.80;99.90;;;;;;5055394;28;20209;-80
2023/03/29 04:13:41;;;;;;;0.10;0.10;;;6.80;99.90;;;;;;5035094;28;20192;-80
2023/03/29 04:16:07;;;;;;;0.10;0.10;;;6.70;99.90;;;;;;5036280;28;20208;-80
2023/03/29 04:18:32;;;;;;;0.10;0.10;;;6.70;99.90;;;;;;5035577;28;20196;-79
2023/03/29 04:20:58;;;;;;;0.10;0.10;;;6.70;99.90;;;;;;5035727;28;20200;-80
2023/03/29 04:23:24;;;;;;;0.10;0.10;;;6.70;99.90;;;;;;5052315;28;20674;-80
2023/03/29 04:25:54;;;;;;;0.10;0.10;;;6.80;99.90;;;;;;5033817;28;20192;-80
2023/03/29 04:28:20;;;;;;;0.10;0.10;;;6.90;99.90;;;;;;5032627;28;20195;-80
2023/03/29 04:30:46;;;;;;;0.10;0.10;;;6.80;99.90;;;;;;5034696;28;20672;-80
2023/03/29 04:33:12;;;;;;;0.10;0.10;;;6.90;99.90;;;;;;5051680;28;20185;-80
2023/03/29 04:35:38;;;;;;;0.10;0.10;;;6.90;99.90;;;;;;5051307;28;20817;-80
2023/03/29 04:38:03;;;;;;;0.10;0.10;;;7.10;99.90;;;;;;5035475;28;20192;-80
2023/03/29 04:40:29;;;;;;;0.67;0.67;;;7.10;99.90;;;;;;5052973;28;20300;-80
2023/03/29 04:42:55;;;;;;;0.10;0.10;;;6.90;99.90;;;;;;5026952;28;20193;-80
2023/03/29 04:45:21;;;;;;;0.10;0.10;;;6.90;99.90;;;;;;5053854;28;20198;-81
2023/03/29 04:47:46;;;;;;;0.10;0.10;;;6.90;99.90;;;;;;5034057;28;20186;-80
2023/03/29 04:50:12;;;;;;;0.10;0.10;;;6.90;99.90;;;;;;5034446;28;20750;-80
2023/03/29 04:52:38;;;;;;;0.10;0.10;;;6.90;99.90;;;;;;5034187;28;20191;-81
2023/03/29 04:55:05;;;;;;;0.10;0.10;;;6.90;99.90;;;;;;5033361;28;20194;-80
2023/03/29 04:57:31;;;;;;;0.10;0.10;;;7.10;99.90;;;;;;5052083;28;20177;-80
2023/03/29 04:59:57;;;;;;;0.00;0.00;;;7.20;99.90;;;;;;5053097;28;20251;-80
2023/03/29 05:02:22;;;;;;;0.10;0.10;;;7.30;99.90;;;;;;5033663;28;20256;-80
2023/03/29 05:04:48;;;;;;;0.10;0.10;;;7.20;99.90;;;;;;5034180;28;20214;-80
2023/03/29 05:07:14;;;;;;;0.10;0.10;;;7.00;99.90;;;;;;5032414;28;21166;-80
2023/03/29 05:09:41;;;;;;;0.10;0.10;;;7.10;99.90;;;;;;5052714;28;20208;-80
2023/03/29 05:12:07;;;;;;;0.10;0.10;;;7.00;99.90;;;;;;5028056;28;20246;-80
2023/03/29 05:14:33;;;;;;;0.10;0.10;;;7.00;99.90;;;;;;5030986;28;20212;-82
2023/03/29 05:16:58;;;;;;;0.10;0.10;;;6.80;99.90;;;;;;5054580;28;20590;-82
2023/03/29 05:19:24;;;;;;;0.10;0.10;;;6.90;99.90;;;;;;5055193;28;20323;-81
2023/03/29 05:21:51;;;;;;;0.10;0.10;;;7.10;99.90;;;;;;5055117;28;20216;-81
2023/03/29 05:24:17;;;;;;;0.00;0.00;;;7.00;99.90;;;;;;5052771;28;20207;-80
2023/03/29 05:26:43;;;;;;;0.10;0.10;;;7.10;99.90;;;;;;5034307;28;20246;-80
2023/03/29 05:29:11;;;;;;;0.07;0.07;;;7.30;99.90;;;;;;5038854;28;20199;-80
2023/03/29 05:31:36;;;;;;;0.10;0.10;;;7.30;99.90;;;;;;5030231;28;20603;-80
2023/03/29 05:34:03;;;;;;;0.10;0.10;;;7.40;99.90;;;;;;5038442;28;20227;-81
2023/03/29 05:36:29;;;;;;;0.10;0.10;;;7.30;99.90;;;;;;5038788;28;20298;-80
2023/03/29 05:38:55;;;;;;;0.10;0.10;;;7.40;99.90;;;;;;5038361;28;20310;-81
2023/03/29 05:41:22;;;;;;;0.10;0.10;;;7.40;99.90;;;;;;5040871;28;20267;-80
2023/03/29 05:43:48;;;;;;;0.10;0.10;;;7.40;99.90;;;;;;5039959;28;20208;-80
2023/03/29 05:46:14;;;;;;;0.10;0.10;;;7.40;99.90;;;;;;5039374;28;20258;-80
2023/03/29 05:48:40;;;;;;;0.10;0.10;;;7.60;99.90;;;;;;5039403;28;20185;-80
2023/03/29 05:51:05;;;;;;;0.10;0.10;;;7.60;99.90;;;;;;5040009;28;20205;-80
2023/03/29 05:53:32;;;;;;;0.10;0.10;;;7.70;99.90;;;;;;5038628;28;20191;-80
2023/03/29 05:55:57;;;;;;;0.10;0.10;;;7.70;99.90;;;;;;5037945;28;20195;-79
2023/03/29 05:58:25;;;;;;;0.10;0.10;;;7.90;99.90;;;;;;5056619;28;20178;-80
2023/03/29 06:00:51;;;;;;;0.10;0.10;;;8.00;99.90;;;;;;5038832;28;20209;-80
2023/03/29 06:03:24;;;;;;;0.10;0.10;;;8.20;99.90;;;;;;5035907;28;20191;-80
2023/03/29 06:05:59;;;;;;;0.00;0.00;;;8.30;99.90;;;;;;5036633;28;20189;-80
2023/03/29 06:08:26;;;;;;;0.10;0.10;;;8.40;99.90;;;;;;5036713;28;20184;-79
2023/03/29 06:11:00;;;;;;;0.10;0.10;;;8.20;99.90;;;;;;5035889;28;20201;-80
2023/03/29 06:13:26;;;;;;;0.10;0.10;;;8.30;99.90;;;;;;5036388;28;20226;-80
2023/03/29 06:15:52;;;;;;;0.10;0.10;;;8.10;99.90;;;;;;5051324;28;20186;-79
2023/03/29 06:18:19;;;;;;;0.10;0.10;;;8.10;99.90;;;;;;5034891;28;20190;-80
2023/03/29 06:20:48;;;;;;;0.10;0.10;;;8.00;99.90;;;;;;5036935;28;20203;-80
2023/03/29 06:23:14;;;;;;;0.10;0.10;;;8.10;99.90;;;;;;5027594;28;20227;-79
2023/03/29 06:25:40;;;;;;;0.10;0.10;;;8.40;99.90;;;;;;5054807;28;20215;-80
2023/03/29 06:28:06;;;;;;;0.10;0.10;;;8.60;99.90;;;;;;5036956;28;20676;-80
2023/03/29 06:30:31;;;;;;;0.10;0.10;;;8.80;99.90;;;;;;5036596;28;20254;-79
2023/03/29 06:33:00;;;;;;;0.10;0.10;;;8.90;99.90;;;;;;5054669;28;22003;-80
2023/03/29 06:35:26;;;;;;;0.10;0.10;;;8.70;99.90;;;;;;5037087;28;20269;-80
2023/03/29 06:37:53;;;;;;;0.10;0.10;;;8.50;99.90;;;;;;5037834;28;20287;-80
2023/03/29 06:40:23;;;;;;;0.10;0.10;;;8.50;99.90;;;;;;5029390;28;20212;-80
2023/03/29 06:42:56;;;;;;;0.10;0.10;;;8.70;99.90;;;;;;5037682;28;20291;-80
2023/03/29 06:45:25;;;;;;;0.10;0.10;;;8.90;99.90;;;;;;5049361;28;20197;-79
2023/03/29 06:47:51;;;;;;;0.10;0.10;;;9.00;99.90;;;;;;5053988;28;20185;-82
2023/03/29 06:50:17;;;;;;;0.10;0.10;;;8.80;99.90;;;;;;5040751;28;20338;-83
2023/03/29 06:52:45;;;;;;;0.10;0.10;;;8.60;99.90;;;;;;5036526;28;20187;-81
2023/03/29 06:55:11;;;;;;;0.10;0.10;;;8.80;99.90;;;;;;5054311;28;20185;-81
2023/03/29 06:57:38;;;;;;;0.10;0.10;;;9.00;99.90;;;;;;5041059;28;20524;-81
2023/03/29 07:00:17;;;;;;;0.10;0.10;;;9.00;99.90;;;;;;5041439;28;20654;-82
2023/03/29 07:02:43;;;;;;;0.10;0.10;;;9.10;99.90;;;;;;5041577;28;20685;-81
2023/03/29 07:05:12;;;;;;;0.10;0.10;;;8.80;99.90;;;;;;5042916;28;20219;-81
2023/03/29 07:07:59;;;;;;;0.10;0.10;;;8.50;99.90;;;;;;5042175;28;20185;-82
2023/03/29 07:10:34;;;;;;;0.10;0.10;;;9.00;99.90;;;;;;5040497;28;20304;-81
2023/03/29 07:13:00;;;;;;;0.10;0.10;;;9.30;99.90;;;;;;5037833;28;20177;-81
2023/03/29 07:15:27;;;;;;;0.10;0.10;;;9.10;99.90;;;;;;5036794;28;20217;-81
2023/03/29 07:17:53;;;;;;;0.10;0.10;;;8.80;99.90;;;;;;5028107;28;20304;-83
2023/03/29 07:20:21;;;;;;;0.10;0.10;;;9.00;99.90;;;;;;5036171;28;20206;-83
2023/03/29 07:22:47;;;;;;;0.10;0.10;;;9.30;99.90;;;;;;5035485;28;20227;-82
2023/03/29 07:25:14;;;;;;;0.10;0.10;;;9.50;99.90;;;;;;5036433;28;20252;-83
2023/03/29 07:27:41;;;;;;;0.10;0.10;;;9.80;99.90;;;;;;5055431;28;20273;-82
2023/03/29 07:30:10;;;;;;;0.10;0.10;;;10.10;99.90;;;;;;5054887;28;20622;-82
2023/03/29 07:32:38;;;;;;;0.10;0.10;;;10.20;99.90;;;;;;5038964;28;20212;-81
2023/03/29 07:35:05;;;;;;;0.10;0.10;;;10.20;99.90;;;;;;5034813;28;20244;-80
2023/03/29 07:37:33;;;;;;;0.10;0.10;;;10.30;99.90;;;;;;5035591;28;20252;-81
2023/03/29 07:39:59;;;;;;;0.10;0.10;;;10.30;99.90;;;;;;5053245;28;20266;-81
2023/03/29 07:42:25;;;;;;;0.10;0.10;;;10.50;99.90;;;;;;5055015;28;20259;-80
2023/03/29 07:44:50;;;;;;;0.07;0.07;;;10.60;99.90;;;;;;5035421;28;20232;-80
2023/03/29 07:47:16;;;;;;;0.10;0.10;;;10.80;99.90;;;;;;5038535;28;20184;-80
2023/03/29 07:49:42;;;;;;;0.10;0.10;;;10.80;99.90;;;;;;5055985;28;20205;-80
2023/03/29 07:52:08;;;;;;;0.10;0.10;;;10.80;99.90;;;;;;5037925;28;20281;-80
2023/03/29 07:54:33;;;;;;;0.10;0.10;;;10.70;99.90;;;;;;5039295;28;20221;-80
2023/03/29 07:56:59;;;;;;;0.10;0.10;;;10.60;99.90;;;;;;5056201;28;20186;-80
2023/03/29 07:59:26;;;;;;;0.10;0.10;;;10.60;99.90;;;;;;5057976;28;20223;-81
2023/03/29 08:01:52;;;;;;;0.10;0.10;;;10.60;99.90;;;;;;5042636;28;20219;-81
2023/03/29 08:04:17;;;;;;;0.10;0.10;;;10.60;99.90;;;;;;5034617;28;20230;-81
2023/03/29 08:06:43;;;;;;;0.10;0.10;;;10.50;99.90;;;;;;5040901;28;20199;-82
2023/03/29 08:09:08;;;;;;;0.10;0.10;;;10.50;99.90;;;;;;5061294;28;20658;-82
2023/03/29 08:11:34;;;;;;;0.07;0.07;;;10.50;99.90;;;;;;5043591;28;20650;-81
2023/03/29 08:13:59;;;;;;;0.10;0.10;;;10.60;99.90;;;;;;5043410;28;20185;-82
2023/03/29 08:16:25;;;;;;;0.10;0.10;;;10.70;99.90;;;;;;5038713;28;20278;-81
2023/03/29 08:18:51;;;;;;;0.10;0.10;;;10.60;99.90;;;;;;5036932;28;20185;-80
2023/03/29 08:21:16;;;;;;;0.10;0.10;;;10.60;99.90;;;;;;5036224;28;20205;-80
2023/03/29 08:23:42;;;;;;;0.10;0.10;;;10.70;99.90;;;;;;5037499;28;20209;-80
2023/03/29 08:26:08;;;;;;;0.10;0.10;;;10.70;99.90;;;;;;5053932;28;20189;-81
2023/03/29 08:28:33;;;;;;;0.10;0.10;;;10.70;99.90;;;;;;5051689;28;20274;-80
2023/03/29 08:30:59;;;;;;;0.10;0.10;;;10.80;99.90;;;;;;5035160;28;20723;-81
2023/03/29 08:33:25;;;;;;;0.10;0.10;;;10.80;99.90;;;;;;5027973;28;20716;-80
2023/03/29 08:35:50;;;;;;;0.10;0.10;;;11.00;99.90;;;;;;5036187;28;20288;-81
2023/03/29 08:38:16;;;;;;;0.10;0.10;;;11.10;99.90;;;;;;5038770;28;20190;-82
2023/03/29 08:40:41;;;;;;;0.10;0.10;;;11.30;99.90;;;;;;5040345;28;20280;-80
2023/03/29 08:43:10;;;;;;;0.10;0.10;;;11.40;99.90;;;;;;5038893;28;20235;-81
2023/03/29 08:45:45;;;;;;;0.10;0.10;;;11.50;99.90;;;;;;5055811;28;20212;-82
2023/03/29 08:48:24;;;;;;;0.10;0.10;;;11.60;99.90;;;;;;5034147;28;20200;-80
2023/03/29 08:50:57;;;;;;;0.10;0.10;;;11.70;99.90;;;;;;5060127;28;20208;-82
2023/03/29 08:53:41;;;;;;;0.03;0.03;;;11.90;99.90;;;;;;5041450;28;20208;-82
2023/03/29 08:56:09;;;;;;;0.10;0.10;;;11.90;99.90;;;;;;5057606;28;20177;-81
2023/03/29 08:58:36;;;;;;;0.10;0.10;;;11.70;99.90;;;;;;5041904;28;20549;-81
2023/03/29 09:01:07;;;;;;;0.10;0.10;;;11.70;99.90;;;;;;5036550;28;20293;-81
2023/03/29 09:03:43;;;;;;;0.10;0.10;;;11.70;99.90;;;;;;5039927;28;20186;-82
2023/03/29 09:06:13;;;;;;;0.10;0.10;;;11.90;99.90;;;;;;5032862;28;20253;-83
2023/03/29 09:08:43;;;;;;;0.10;0.10;;;12.00;99.90;;;;;;5041691;28;20189;-82
2023/03/29 09:11:14;;;;;;;0.10;0.10;;;12.20;99.90;;;;;;5042162;28;20212;-83
2023/03/29 09:13:55;;;;;;;0.10;0.10;;;12.20;99.90;;;;;;5039473;28;20196;-82
2023/03/29 09:17:08;;;;;;;0.10;0.10;;;12.20;99.90;;;;;;5044243;28;20196;-82
2023/03/29 09:19:55;;;;;;;0.10;0.10;;;12.30;99.90;;;;;;5045487;28;20216;-81
2023/03/29 09:22:36;;;;;;;0.10;0.10;;;12.50;99.90;;;;;;5044423;28;20216;-81
2023/03/29 09:25:24;;;;;;;0.00;0.00;;;12.40;99.90;;;;;;5058514;28;20212;-82
2023/03/29 09:28:16;;;;;;;0.10;0.10;;;12.70;99.90;;;;;;5057759;28;20186;-82
2023/03/29 09:30:43;;;;;;;0.10;0.10;;;13.10;99.90;;;;;;5042346;28;20299;-82
2023/03/29 09:33:30;;;;;;;0.10;0.10;;;13.40;99.90;;;;;;5041856;28;20190;-82
2023/03/29 09:36:16;;;;;;;0.10;0.10;;;13.50;99.90;;;;;;5040145;28;20184;-82
2023/03/29 09:38:46;;;;;;;0.10;0.10;;;13.50;99.90;;;;;;5061068;28;20528;-82
2023/03/29 09:41:27;;;;;;;0.10;0.10;;;13.60;99.90;;;;;;5050073;28;20202;-82
2023/03/29 09:43:56;;;;;;;0.10;0.10;;;13.70;99.90;;;;;;5041193;28;20213;-82
2023/03/29 09:46:27;;;;;;;0.10;0.10;;;13.60;99.90;;;;;;5040187;28;20200;-82
2023/03/29 09:48:54;;;;;;;0.10;0.10;;;13.50;99.90;;;;;;5031980;28;20189;-82
2023/03/29 09:51:24;;;;;;;0.10;0.10;;;13.60;99.90;;;;;;5057265;28;20289;-82
2023/03/29 09:53:50;;;;;;;0.00;0.00;;;13.70;99.90;;;;;;5041612;28;20271;-81
2023/03/29 09:56:17;;;;;;;0.10;0.10;;;13.80;99.90;;;;;;5037913;28;20227;-80
2023/03/29 09:58:45;;;;;;;0.10;0.10;;;13.70;99.90;;;;;;5037821;28;20192;-81
2023/03/29 10:01:14;;;;;;;0.00;0.00;;;13.70;99.90;;;;;;5053974;28;20215;-81
2023/03/29 10:03:40;;;;;;;0.10;0.10;;;13.30;99.90;;;;;;5038357;28;21225;-81
2023/03/29 10:06:09;;;;;;;0.10;0.10;;;13.20;99.90;;;;;;5036771;28;20188;-83
2023/03/29 10:08:46;;;;;;;0.10;0.10;;;13.30;99.90;;;;;;5055643;28;20188;-83
2023/03/29 10:11:28;;;;;;;0.10;0.10;;;13.40;99.90;;;;;;5037471;28;20571;-83
2023/03/29 10:13:59;;;;;;;0.10;0.10;;;13.50;99.90;;;;;;5040098;28;20267;-82
2023/03/29 10:16:32;;;;;;;0.10;0.10;;;13.60;99.90;;;;;;5040048;28;20191;-83
2023/03/29 10:18:57;;;;;;;0.10;0.10;;;13.80;99.90;;;;;;5037902;28;20190;-82
2023/03/29 10:21:23;;;;;;;0.10;0.10;;;13.80;99.90;;;;;;5032385;28;20214;-82
2023/03/29 10:23:57;;;;;;;0.10;0.10;;;13.80;99.90;;;;;;5038732;28;20210;-82
2023/03/29 10:26:31;;;;;;;0.10;0.10;;;13.90;99.90;;;;;;5037339;28;20183;-81
2023/03/29 10:29:00;;;;;;;0.10;0.10;;;14.00;99.90;;;;;;5037044;28;20199;-81
2023/03/29 10:31:30;;;;;;;0.10;0.10;;;14.20;99.90;;;;;;5053336;28;21162;-82
2023/03/29 10:33:57;;;;;;;0.10;0.10;;;14.20;99.90;;;;;;5035957;28;20574;-82
2023/03/29 10:36:25;;;;;;;0.10;0.10;;;14.20;99.90;;;;;;5054320;28;20241;-82
2023/03/29 10:38:53;;;;;;;0.10;0.10;;;14.50;99.90;;;;;;5055373;28;20192;-82
2023/03/29 10:41:20;;;;;;;0.10;0.10;;;14.80;99.90;;;;;;5036145;28;20305;-82
2023/03/29 10:43:49;;;;;;;0.10;0.10;;;15.00;99.90;;;;;;5051886;28;20188;-82
2023/03/29 10:46:39;;;;;;;0.10;0.10;;;15.10;99.90;;;;;;5051648;28;20247;-82
2023/03/29 10:49:16;;;;;;;0.10;0.10;;;15.30;99.90;;;;;;5035562;28;20253;-82
2023/03/29 10:51:48;;;;;;;0.10;0.10;;;15.20;99.90;;;;;;5032736;28;20173;-82
2023/03/29 10:54:18;;;;;;;0.10;0.10;;;15.20;99.90;;;;;;5038822;28;20192;-80
2023/03/29 10:57:08;;;;;;;0.10;0.10;;;15.30;99.90;;;;;;5052863;28;20196;-81
2023/03/29 11:00:01;;;;;;;0.10;0.10;;;15.60;99.90;;;;;;5029548;28;20209;-82
2023/03/29 11:02:29;;;;;;;0.10;0.10;;;16.40;99.90;;;;;;5025891;28;20197;-81
2023/03/29 11:05:00;;;;;;;0.10;0.10;;;16.40;99.90;;;;;;5029369;28;20216;-81
2023/03/29 11:07:33;;;;;;;0.10;0.10;;;16.60;99.90;;;;;;5055565;28;20189;-82
2023/03/29 11:10:38;;;;;;;0.10;0.10;;;16.40;99.90;;;;;;5046620;28;20205;-82
2023/03/29 11:13:36;;;;;;;0.10;0.10;;;16.40;99.90;;;;;;5036940;28;20264;-82
2023/03/29 11:16:10;;;;;;;0.10;0.10;;;16.40;99.90;;;;;;5035148;28;20662;-82
2023/03/29 11:18:57;;;;;;;0.10;0.10;;;16.50;99.90;;;;;;5054531;28;20231;-81
2023/03/29 11:21:54;;;;;;;0.10;0.10;;;16.60;99.90;;;;;;5033381;28;20203;-82
2023/03/29 11:24:32;;;;;;;0.03;0.03;;;16.50;99.90;;;;;;5030724;28;20201;-82
2023/03/29 11:27:27;;;;;;;0.10;0.10;;;16.40;99.90;;;;;;5042677;28;20284;-82
2023/03/29 11:30:07;;;;;;;0.10;0.10;;;16.50;99.90;;;;;;5030151;28;20221;-80
2023/03/29 11:32:45;;;;;;;0.10;0.10;;;16.60;99.90;;;;;;5049461;28;20238;-81
2023/03/29 11:35:36;;;;;;;0.10;0.10;;;16.60;99.90;;;;;;5033896;28;20181;-81
2023/03/29 11:38:05;;;;;;;0.10;0.10;;;16.90;99.90;;;;;;5053362;28;20186;-82
2023/03/29 11:40:41;;;;;;;0.10;0.10;;;16.90;99.90;;;;;;5053438;28;20204;-81
2023/03/29 11:43:25;;;;;;;0.10;0.10;;;17.00;99.90;;;;;;5055213;28;20188;-82
2023/03/29 11:45:58;;;;;;;0.10;0.10;;;17.10;99.90;;;;;;5035179;28;20327;-82
2023/03/29 11:48:30;;;;;;;0.10;0.10;;;17.20;99.90;;;;;;5035619;28;20192;-82
2023/03/29 11:51:01;;;;;;;0.10;0.10;;;17.30;99.90;;;;;;5035049;28;20197;-81
2023/03/29 11:53:44;;;;;;;0.10;0.10;;;17.40;99.90;;;;;;5031058;28;20177;-82
2023/03/29 11:56:23;;;;;;;0.10;0.10;;;17.10;99.90;;;;;;5041262;28;20173;-83
2023/03/29 11:58:56;;;;;;;0.10;0.10;;;17.40;99.90;;;;;;5042148;28;20642;-82
2023/03/29 12:01:36;;;;;;;0.10;0.10;;;17.40;99.90;;;;;;5042729;28;20213;-83
2023/03/29 12:04:09;;;;;;;0.10;0.10;;;17.40;99.90;;;;;;5042303;28;20196;-81
2023/03/29 12:06:42;;;;;;;0.10;0.10;;;17.50;99.90;;;;;;5036967;28;20575;-81
2023/03/29 12:09:27;;;;;;;0.10;0.10;;;17.50;99.90;;;;;;5037051;28;20844;-81
2023/03/29 12:12:08;;;;;;;0.10;0.10;;;17.60;99.90;;;;;;5036748;28;20184;-81
2023/03/29 12:15:11;;;;;;;0.10;0.10;;;17.50;99.90;;;;;;5037875;28;20199;-81
2023/03/29 12:17:43;;;;;;;0.10;0.10;;;17.60;99.90;;;;;;5028666;28;20178;-81
2023/03/29 12:20:27;;;;;;;0.10;0.10;;;17.30;99.90;;;;;;5039753;28;20204;-81
2023/03/29 12:22:53;;;;;;;0.10;0.10;;;17.30;99.90;;;;;;5040551;28;20192;-81
2023/03/29 12:25:46;;;;;;;0.10;0.10;;;17.30;99.90;;;;;;5041224;28;20571;-81
2023/03/29 12:28:27;;;;;;;0.10;0.10;;;17.30;99.90;;;;;;5057751;28;20228;-82
2023/03/29 12:31:28;;;;;;;0.10;0.10;;;17.40;99.90;;;;;;5057907;28;20196;-81
2023/03/29 12:34:18;;;;;;;0.10;0.10;;;17.40;99.90;;;;;;5014221;28;20189;-81
2023/03/29 12:37:01;;;;;;;0.10;0.10;;;17.40;99.90;;;;;;5031140;28;20791;-81
2023/03/29 12:39:29;;;;;;;0.10;0.10;;;17.20;99.90;;;;;;5058492;28;20223;-81
2023/03/29 12:42:15;;;;;;;0.10;0.10;;;17.20;99.90;;;;;;5039147;28;20189;-81
2023/03/29 12:44:58;;;;;;;0.10;0.10;;;17.20;99.90;;;;;;5042302;28;20228;-81
2023/03/29 12:47:26;;;;;;;0.10;0.10;;;17.20;99.90;;;;;;5038791;28;20178;-82
2023/03/29 12:49:55;;;;;;;0.10;0.10;;;17.10;99.90;;;;;;5040788;28;20217;-81
2023/03/29 12:52:26;;;;;;;0.10;0.10;;;17.20;99.90;;;;;;5038484;28;20610;-82
2023/03/29 12:55:20;;;;;;;0.10;0.10;;;17.20;99.90;;;;;;5052639;28;20208;-81
2023/03/29 12:58:40;;;;;;;0.10;0.10;;;17.10;99.90;;;;;;5058686;28;20219;-81
2023/03/29 13:01:22;;;;;;;0.10;0.10;;;17.10;99.90;;;;;;4990589;28;20221;-80
2023/03/29 13:03:50;;;;;;;0.10;0.10;;;17.20;99.90;;;;;;5056990;28;20715;-82
2023/03/29 13:06:45;;;;;;;0.10;0.10;;;17.20;99.90;;;;;;5057581;28;20186;-81
2023/03/29 13:09:23;;;;;;;0.10;0.10;;;17.00;99.90;;;;;;5027161;28;20192;-81
2023/03/29 13:11:54;;;;;;;0.10;0.10;;;17.00;99.90;;;;;;5034999;28;20185;-81
2023/03/29 13:14:26;;;;;;;0.10;0.10;;;17.00;99.90;;;;;;5041543;28;20278;-81